sensor_id;sensor_type;location;lat;lon;timestamp;temperature;humidity
18444;DHT22;9350;53.176;8.194;2024-02-15T00:01:45;10.80;99.90
18444;DHT22;9350;53.176;8.194;2024-02-15T00:04:12;10.80;99.90
18444;DHT22;9350;53.176;8.194;2024-02-15T00:06:38;10.80;99.90
18444;DHT22;9350;53.176;8.194;2024-02-15T00:09:05;10.80;99.90
18444;DHT22;9350;53.176;8.194;2024-02-15T00:11:33;10.80;99.90
18444;DHT22;9350;53.176;8.194;2024-02-15T00:14:00;10.80;99.90
18444;DHT22;9350;53.176;8.194;2024-02-15T00:16:27;10.90;99.90
18444;DHT22;9350;53.176;8.194;2024-02-15T00:18:54;10.90;99.90
18444;DHT22;9350;53.176;8.194;2024-02-15T00:21:22;10.80;99.90
18444;DHT22;9350;53.176;8.194;2024-02-15T00:23:49;10.80;99.90
18444;DHT22;9350;53.176;8.194;2024-02-15T00:26:15;10.80;99.90
18444;DHT22;9350;53.176;8.194;2024-02-15T00:28:44;10.80;99.90
18444;DHT22;9350;53.176;8.194;2024-02-15T00:31:10;10.90;99.90
18444;DHT22;9350;53.176;8.194;2024-02-15T00:33:38;10.90;99.90
18444;DHT22;9350;53.176;8.194;2024-02-15T00:36:05;10.80;99.90
18444;DHT22;9350;53.176;8.194;2024-02-15T00:38:32;10.90;99.90
18444;DHT22;9350;53.176;8.194;2024-02-15T00:40:59;10.90;99.90
18444;DHT22;9350;53.176;8.194;2024-02-15T00:43:26;10.90;99.90
18444;DHT22;9350;53.176;8.194;2024-02-15T00:45:55;10.80;99.90
18444;DHT22;9350;53.176;8.194;2024-02-15T00:48:21;10.80;99.90
18444;DHT22;9350;53.176;8.194;2024-02-15T00:50:51;11.00;99.90
18444;DHT22;9350;53.176;8.194;2024-02-15T00:53:18;10.90;99.90
18444;DHT22;9350;53.176;8.194;2024-02-15T00:55:45;10.90;99.90
18444;DHT22;9350;53.176;8.194;2024-02-15T00:58:12;10.90;99.90
18444;DHT22;9350;53.176;8.194;2024-02-15T01:00:39;10.90;99.90
18444;DHT22;9350;53.176;8.194;2024-02-15T01:03:07;10.80;99.90
18444;DHT22;9350;53.176;8.194;2024-02-15T01:05:34;10.90;99.90
18444;DHT22;9350;53.176;8.194;2024-02-15T01:08:01;10.80;99.90
18444;DHT22;9350;53.176;8.194;2024-02-15T01:10:27;10.90;99.90
18444;DHT22;9350;53.176;8.194;2024-02-15T01:12:54;10.90;99.90
18444;DHT22;9350;53.176;8.194;2024-02-15T01:15:21;10.90;99.90
18444;DHT22;9350;53.176;8.194;2024-02-15T01:17:48;10.90;99.90
18444;DHT22;9350;53.176;8.194;2024-02-15T01:20:16;10.90;99.90
18444;DHT22;9350;53.176;8.194;2024-02-15T01:22:43;10.90;99.90
18444;DHT22;9350;53.176;8.194;2024-02-15T01:25:10;10.90;99.90
18444;DHT22;9350;53.176;8.194;2024-02-15T01:27:38;10.90;99.90
18444;DHT22;9350;53.176;8.194;2024-02-15T01:30:06;10.90;99.90
18444;DHT22;9350;53.176;8.194;2024-02-15T01:32:33;10.90;99.90
18444;DHT22;9350;53.176;8.194;2024-02-15T01:35:00;10.90;99.90
18444;DHT22;9350;53.176;8.194;2024-02-15T01:37:28;11.00;99.90
18444;DHT22;9350;53.176;8.194;2024-02-15T01:39:55;11.00;99.90
18444;DHT22;9350;53.176;8.194;2024-02-15T01:42:22;10.90;99.90
18444;DHT22;9350;53.176;8.194;2024-02-15T01:44:48;11.00;99.90
18444;DHT22;9350;53.176;8.194;2024-02-15T01:47:16;10.90;99.90
18444;DHT22;9350;53.176;8.194;2024-02-15T01:49:44;11.00;99.90
18444;DHT22;9350;53.176;8.194;2024-02-15T01:52:12;11.00;99.90
18444;DHT22;9350;53.176;8.194;2024-02-15T01:54:41;11.00;99.90
18444;DHT22;9350;53.176;8.194;2024-02-15T01:57:08;11.00;99.90
18444;DHT22;9350;53.176;8.194;2024-02-15T01:59:36;11.00;99.90
18444;DHT22;9350;53.176;8.194;2024-02-15T02:02:04;11.00;99.90
18444;DHT22;9350;53.176;8.194;2024-02-15T02:04:33;10.90;99.90
18444;DHT22;9350;53.176;8.194;2024-02-15T02:07:00;11.00;99.90
18444;DHT22;9350;53.176;8.194;2024-02-15T02:09:27;10.90;99.90
18444;DHT22;9350;53.176;8.194;2024-02-15T02:11:55;11.00;99.90
18444;DHT22;9350;53.176;8.194;2024-02-15T02:14:22;11.00;99.90
18444;DHT22;9350;53.176;8.194;2024-02-15T02:16:49;10.90;99.90
18444;DHT22;9350;53.176;8.194;2024-02-15T02:19:17;11.00;99.90
18444;DHT22;9350;53.176;8.194;2024-02-15T02:21:44;11.00;99.90
18444;DHT22;9350;53.176;8.194;2024-02-15T02:24:14;11.00;99.90
18444;DHT22;9350;53.176;8.194;2024-02-15T02:26:45;11.00;99.90
18444;DHT22;9350;53.176;8.194;2024-02-15T02:29:13;11.00;99.90
18444;DHT22;9350;53.176;8.194;2024-02-15T02:31:40;11.00;99.90
18444;DHT22;9350;53.176;8.194;2024-02-15T02:34:08;11.00;99.90
18444;DHT22;9350;53.176;8.194;2024-02-15T02:36:35;11.00;99.90
18444;DHT22;9350;53.176;8.194;2024-02-15T02:39:03;10.90;99.90
18444;DHT22;9350;53.176;8.194;2024-02-15T02:41:30;11.00;99.90
18444;DHT22;9350;53.176;8.194;2024-02-15T02:43:58;10.90;99.90
18444;DHT22;9350;53.176;8.194;2024-02-15T02:46:25;11.00;99.90
18444;DHT22;9350;53.176;8.194;2024-02-15T02:48:51;11.00;99.90
18444;DHT22;9350;53.176;8.194;2024-02-15T02:51:18;11.00;99.90
18444;DHT22;9350;53.176;8.194;2024-02-15T02:53:45;11.00;99.90
18444;DHT22;9350;53.176;8.194;2024-02-15T02:56:12;11.00;99.90
18444;DHT22;9350;53.176;8.194;2024-02-15T02:58:39;11.00;99.90
18444;DHT22;9350;53.176;8.194;2024-02-15T03:01:09;11.00;99.90
18444;DHT22;9350;53.176;8.194;2024-02-15T03:03:36;11.00;99.90
18444;DHT22;9350;53.176;8.194;2024-02-15T03:06:04;11.00;99.90
18444;DHT22;9350;53.176;8.194;2024-02-15T03:08:31;11.00;99.90
18444;DHT22;9350;53.176;8.194;2024-02-15T03:10:58;10.90;99.90
18444;DHT22;9350;53.176;8.194;2024-02-15T03:13:25;11.00;99.90
18444;DHT22;9350;53.176;8.194;2024-02-15T03:15:51;10.90;99.90
18444;DHT22;9350;53.176;8.194;2024-02-15T03:18:20;10.90;99.90
18444;DHT22;9350;53.176;8.194;2024-02-15T03:20:49;10.90;99.90
18444;DHT22;9350;53.176;8.194;2024-02-15T03:23:15;10.90;99.90
18444;DHT22;9350;53.176;8.194;2024-02-15T03:25:42;10.90;99.90
18444;DHT22;9350;53.176;8.194;2024-02-15T03:28:09;10.90;99.90
18444;DHT22;9350;53.176;8.194;2024-02-15T03:30:36;10.90;99.90
18444;DHT22;9350;53.176;8.194;2024-02-15T03:33:03;10.90;99.90
18444;DHT22;9350;53.176;8.194;2024-02-15T03:35:32;10.90;99.90
18444;DHT22;9350;53.176;8.194;2024-02-15T03:37:59;10.90;99.90
18444;DHT22;9350;53.176;8.194;2024-02-15T03:40:26;10.90;99.90
18444;DHT22;9350;53.176;8.194;2024-02-15T03:42:54;10.90;99.90
18444;DHT22;9350;53.176;8.194;2024-02-15T03:45:22;10.90;99.90
18444;DHT22;9350;53.176;8.194;2024-02-15T03:47:51;10.90;99.90
18444;DHT22;9350;53.176;8.194;2024-02-15T03:50:18;10.90;99.90
18444;DHT22;9350;53.176;8.194;2024-02-15T03:52:48;10.90;99.90
18444;DHT22;9350;53.176;8.194;2024-02-15T03:55:15;11.00;99.90
18444;DHT22;9350;53.176;8.194;2024-02-15T03:57:42;10.90;99.90
18444;DHT22;9350;53.176;8.194;2024-02-15T04:00:12;10.80;99.90
18444;DHT22;9350;53.176;8.194;2024-02-15T04:02:40;10.80;99.90
18444;DHT22;9350;53.176;8.194;2024-02-15T04:05:08;10.90;99.90
18444;DHT22;9350;53.176;8.194;2024-02-15T04:07:37;10.90;99.90
18444;DHT22;9350;53.176;8.194;2024-02-15T04:10:06;10.90;99.90
18444;DHT22;9350;53.176;8.194;2024-02-15T04:12:33;10.80;99.90
18444;DHT22;9350;53.176;8.194;2024-02-15T04:15:00;10.90;99.90
18444;DHT22;9350;53.176;8.194;2024-02-15T04:17:31;10.80;99.90
18444;DHT22;9350;53.176;8.194;2024-02-15T04:19:58;10.90;99.90
18444;DHT22;9350;53.176;8.194;2024-02-15T04:22:25;10.80;99.90
18444;DHT22;9350;53.176;8.194;2024-02-15T04:24:52;10.80;99.90
18444;DHT22;9350;53.176;8.194;2024-02-15T04:27:20;10.90;99.90
18444;DHT22;9350;53.176;8.194;2024-02-15T04:29:47;10.80;99.90
18444;DHT22;9350;53.176;8.194;2024-02-15T04:32:15;10.90;99.90
18444;DHT22;9350;53.176;8.194;2024-02-15T04:34:44;10.90;99.90
18444;DHT22;9350;53.176;8.194;2024-02-15T04:37:12;10.90;99.90
18444;DHT22;9350;53.176;8.194;2024-02-15T04:39:40;10.90;99.90
18444;DHT22;9350;53.176;8.194;2024-02-15T04:42:06;10.90;99.90
18444;DHT22;9350;53.176;8.194;2024-02-15T04:44:38;10.90;99.90
18444;DHT22;9350;53.176;8.194;2024-02-15T04:47:05;10.90;99.90
18444;DHT22;9350;53.176;8.194;2024-02-15T04:49:32;10.90;99.90
18444;DHT22;9350;53.176;8.194;2024-02-15T04:51:59;10.80;99.90
18444;DHT22;9350;53.176;8.194;2024-02-15T04:54:27;10.90;99.90
18444;DHT22;9350;53.176;8.194;2024-02-15T04:56:55;10.90;99.90
18444;DHT22;9350;53.176;8.194;2024-02-15T04:59:22;10.90;99.90
18444;DHT22;9350;53.176;8.194;2024-02-15T05:01:52;10.90;99.90
18444;DHT22;9350;53.176;8.194;2024-02-15T05:04:20;10.80;99.90
18444;DHT22;9350;53.176;8.194;2024-02-15T05:06:46;10.90;99.90
18444;DHT22;9350;53.176;8.194;2024-02-15T05:09:13;10.90;99.90
18444;DHT22;9350;53.176;8.194;2024-02-15T05:11:43;10.90;99.90
18444;DHT22;9350;53.176;8.194;2024-02-15T05:14:12;10.90;99.90
18444;DHT22;9350;53.176;8.194;2024-02-15T05:16:44;10.80;99.90
18444;DHT22;9350;53.176;8.194;2024-02-15T05:19:14;10.90;99.90
18444;DHT22;9350;53.176;8.194;2024-02-15T05:21:41;10.90;99.90
18444;DHT22;9350;53.176;8.194;2024-02-15T05:24:10;10.80;99.90
18444;DHT22;9350;53.176;8.194;2024-02-15T05:26:37;10.80;99.90
18444;DHT22;9350;53.176;8.194;2024-02-15T05:29:04;10.80;99.90
18444;DHT22;9350;53.176;8.194;2024-02-15T05:31:31;10.90;99.90
18444;DHT22;9350;53.176;8.194;2024-02-15T05:34:00;10.90;99.90
18444;DHT22;9350;53.176;8.194;2024-02-15T05:36:28;10.90;99.90
18444;DHT22;9350;53.176;8.194;2024-02-15T05:38:55;10.90;99.90
18444;DHT22;9350;53.176;8.194;2024-02-15T05:41:22;10.90;99.90
18444;DHT22;9350;53.176;8.194;2024-02-15T05:43:50;10.90;99.90
18444;DHT22;9350;53.176;8.194;2024-02-15T05:46:18;10.90;99.90
18444;DHT22;9350;53.176;8.194;2024-02-15T05:48:46;10.90;99.90
18444;DHT22;9350;53.176;8.194;2024-02-15T05:51:14;10.90;99.90
18444;DHT22;9350;53.176;8.194;2024-02-15T05:53:43;10.90;99.90
18444;DHT22;9350;53.176;8.194;2024-02-15T05:56:10;10.90;99.90
18444;DHT22;9350;53.176;8.194;2024-02-15T05:58:37;10.80;99.90
18444;DHT22;9350;53.176;8.194;2024-02-15T06:01:05;10.90;99.90
18444;DHT22;9350;53.176;8.194;2024-02-15T06:03:33;10.90;99.90
18444;DHT22;9350;53.176;8.194;2024-02-15T06:06:04;10.90;99.90
18444;DHT22;9350;53.176;8.194;2024-02-15T06:08:33;10.90;99.90
18444;DHT22;9350;53.176;8.194;2024-02-15T06:11:01;10.90;99.90
18444;DHT22;9350;53.176;8.194;2024-02-15T06:13:29;10.90;99.90
18444;DHT22;9350;53.176;8.194;2024-02-15T06:15:55;10.90;99.90
18444;DHT22;9350;53.176;8.194;2024-02-15T06:18:24;10.90;99.90
18444;DHT22;9350;53.176;8.194;2024-02-15T06:20:53;10.90;99.90
18444;DHT22;9350;53.176;8.194;2024-02-15T06:23:22;10.90;99.90
18444;DHT22;9350;53.176;8.194;2024-02-15T06:25:52;10.90;99.90
18444;DHT22;9350;53.176;8.194;2024-02-15T06:28:21;11.00;99.90
18444;DHT22;9350;53.176;8.194;2024-02-15T06:31:01;11.00;99.90
18444;DHT22;9350;53.176;8.194;2024-02-15T06:33:46;10.90;99.90
18444;DHT22;9350;53.176;8.194;2024-02-15T06:36:30;11.00;99.90
18444;DHT22;9350;53.176;8.194;2024-02-15T06:39:14;11.00;99.90
18444;DHT22;9350;53.176;8.194;2024-02-15T06:41:58;11.00;99.90
18444;DHT22;9350;53.176;8.194;2024-02-15T06:44:27;11.00;99.90
18444;DHT22;9350;53.176;8.194;2024-02-15T06:46:54;11.00;99.90
18444;DHT22;9350;53.176;8.194;2024-02-15T06:49:22;11.00;99.90
18444;DHT22;9350;53.176;8.194;2024-02-15T06:51:50;10.90;99.90
18444;DHT22;9350;53.176;8.194;2024-02-15T06:54:17;11.00;99.90
18444;DHT22;9350;53.176;8.194;2024-02-15T06:56:44;11.00;99.90
18444;DHT22;9350;53.176;8.194;2024-02-15T06:59:12;11.00;99.90
18444;DHT22;9350;53.176;8.194;2024-02-15T07:01:41;11.00;99.90
18444;DHT22;9350;53.176;8.194;2024-02-15T07:04:08;10.90;99.90
18444;DHT22;9350;53.176;8.194;2024-02-15T07:06:36;11.00;99.90
18444;DHT22;9350;53.176;8.194;2024-02-15T07:09:03;11.00;99.90
18444;DHT22;9350;53.176;8.194;2024-02-15T07:11:31;11.00;99.90
18444;DHT22;9350;53.176;8.194;2024-02-15T07:13:58;11.00;99.90
18444;DHT22;9350;53.176;8.194;2024-02-15T07:16:25;11.00;99.90
18444;DHT22;9350;53.176;8.194;2024-02-15T07:18:53;11.00;99.90
18444;DHT22;9350;53.176;8.194;2024-02-15T07:21:20;11.00;99.90
18444;DHT22;9350;53.176;8.194;2024-02-15T07:23:51;11.10;99.90
18444;DHT22;9350;53.176;8.194;2024-02-15T07:26:20;11.10;99.90
18444;DHT22;9350;53.176;8.194;2024-02-15T07:28:50;11.10;99.90
18444;DHT22;9350;53.176;8.194;2024-02-15T07:31:18;11.10;99.90
18444;DHT22;9350;53.176;8.194;2024-02-15T07:33:45;11.10;99.90
18444;DHT22;9350;53.176;8.194;2024-02-15T07:36:13;11.20;99.90
18444;DHT22;9350;53.176;8.194;2024-02-15T07:38:40;11.20;99.90
18444;DHT22;9350;53.176;8.194;2024-02-15T07:41:06;11.10;99.90
18444;DHT22;9350;53.176;8.194;2024-02-15T07:43:33;11.20;99.90
18444;DHT22;9350;53.176;8.194;2024-02-15T07:46:00;11.20;99.90
18444;DHT22;9350;53.176;8.194;2024-02-15T07:48:27;11.20;99.90
18444;DHT22;9350;53.176;8.194;2024-02-15T07:50:53;11.20;99.90
18444;DHT22;9350;53.176;8.194;2024-02-15T07:53:21;11.20;99.90
18444;DHT22;9350;53.176;8.194;2024-02-15T07:55:50;11.20;99.90
18444;DHT22;9350;53.176;8.194;2024-02-15T07:58:16;11.30;99.90
18444;DHT22;9350;53.176;8.194;2024-02-15T08:00:44;11.20;99.90
18444;DHT22;9350;53.176;8.194;2024-02-15T08:03:11;11.20;99.90
18444;DHT22;9350;53.176;8.194;2024-02-15T08:05:40;11.20;99.90
18444;DHT22;9350;53.176;8.194;2024-02-15T08:08:07;11.20;99.90
18444;DHT22;9350;53.176;8.194;2024-02-15T08:10:35;11.30;99.90
18444;DHT22;9350;53.176;8.194;2024-02-15T08:13:02;11.30;99.90
18444;DHT22;9350;53.176;8.194;2024-02-15T08:15:28;11.20;99.90
18444;DHT22;9350;53.176;8.194;2024-02-15T08:17:55;11.30;99.90
18444;DHT22;9350;53.176;8.194;2024-02-15T08:20:22;11.30;99.90
18444;DHT22;9350;53.176;8.194;2024-02-15T08:22:49;11.30;99.90
18444;DHT22;9350;53.176;8.194;2024-02-15T08:25:16;11.30;99.90
18444;DHT22;9350;53.176;8.194;2024-02-15T08:27:47;11.30;99.90
18444;DHT22;9350;53.176;8.194;2024-02-15T08:30:16;11.30;99.90
18444;DHT22;9350;53.176;8.194;2024-02-15T08:32:44;11.20;99.90
18444;DHT22;9350;53.176;8.194;2024-02-15T08:35:12;11.30;99.90
18444;DHT22;9350;53.176;8.194;2024-02-15T08:37:39;11.30;99.90
18444;DHT22;9350;53.176;8.194;2024-02-15T08:40:08;11.30;99.90
18444;DHT22;9350;53.176;8.194;2024-02-15T08:42:38;11.30;99.90
18444;DHT22;9350;53.176;8.194;2024-02-15T08:45:07;11.40;99.90
18444;DHT22;9350;53.176;8.194;2024-02-15T08:47:36;11.40;99.90
18444;DHT22;9350;53.176;8.194;2024-02-15T08:50:04;11.30;99.90
18444;DHT22;9350;53.176;8.194;2024-02-15T08:52:31;11.40;99.90
18444;DHT22;9350;53.176;8.194;2024-02-15T08:54:58;11.40;99.90
18444;DHT22;9350;53.176;8.194;2024-02-15T08:57:26;11.30;99.90
18444;DHT22;9350;53.176;8.194;2024-02-15T08:59:53;11.40;99.90
18444;DHT22;9350;53.176;8.194;2024-02-15T09:02:21;11.40;99.90
18444;DHT22;9350;53.176;8.194;2024-02-15T09:04:49;11.40;99.90
18444;DHT22;9350;53.176;8.194;2024-02-15T09:07:15;11.40;99.90
18444;DHT22;9350;53.176;8.194;2024-02-15T09:09:42;11.40;99.90
18444;DHT22;9350;53.176;8.194;2024-02-15T09:12:09;11.40;99.90
18444;DHT22;9350;53.176;8.194;2024-02-15T09:14:36;11.40;99.90
18444;DHT22;9350;53.176;8.194;2024-02-15T09:17:12;11.40;99.90
18444;DHT22;9350;53.176;8.194;2024-02-15T09:23:22;11.40;99.90
18444;DHT22;9350;53.176;8.194;2024-02-15T09:26:08;11.40;99.90
18444;DHT22;9350;53.176;8.194;2024-02-15T09:29:02;11.40;99.90
18444;DHT22;9350;53.176;8.194;2024-02-15T09:34:41;11.50;99.90
18444;DHT22;9350;53.176;8.194;2024-02-15T10:08:29;11.40;99.90
18444;DHT22;9350;53.176;8.194;2024-02-15T10:14:38;11.40;99.90
18444;DHT22;9350;53.176;8.194;2024-02-15T10:17:30;11.40;99.90
18444;DHT22;9350;53.176;8.194;2024-02-15T10:20:41;11.50;99.90
18444;DHT22;9350;53.176;8.194;2024-02-15T10:30:24;11.50;99.90
18444;DHT22;9350;53.176;8.194;2024-02-15T10:33:35;11.50;99.90
18444;DHT22;9350;53.176;8.194;2024-02-15T10:40:06;11.60;99.90
18444;DHT22;9350;53.176;8.194;2024-02-15T10:42:48;11.60;99.90
18444;DHT22;9350;53.176;8.194;2024-02-15T10:45:46;11.60;99.90
18444;DHT22;9350;53.176;8.194;2024-02-15T10:55:26;11.60;99.90
18444;DHT22;9350;53.176;8.194;2024-02-15T10:58:00;11.60;99.90
18444;DHT22;9350;53.176;8.194;2024-02-15T11:00:30;11.60;99.90
18444;DHT22;9350;53.176;8.194;2024-02-15T11:03:01;11.60;99.90
18444;DHT22;9350;53.176;8.194;2024-02-15T11:05:32;11.60;99.90
18444;DHT22;9350;53.176;8.194;2024-02-15T11:08:00;11.60;99.90
18444;DHT22;9350;53.176;8.194;2024-02-15T11:10:30;11.60;99.90
18444;DHT22;9350;53.176;8.194;2024-02-15T11:12:59;11.60;99.90
18444;DHT22;9350;53.176;8.194;2024-02-15T11:15:41;11.70;99.90
18444;DHT22;9350;53.176;8.194;2024-02-15T11:18:11;11.60;99.90
18444;DHT22;9350;53.176;8.194;2024-02-15T11:20:47;11.60;99.90
18444;DHT22;9350;53.176;8.194;2024-02-15T11:23:25;11.60;99.90
18444;DHT22;9350;53.176;8.194;2024-02-15T11:25:53;11.70;99.90
18444;DHT22;9350;53.176;8.194;2024-02-15T11:28:43;11.60;99.90
18444;DHT22;9350;53.176;8.194;2024-02-15T11:34:42;11.70;99.90
18444;DHT22;9350;53.176;8.194;2024-02-15T11:37:09;11.70;99.90
18444;DHT22;9350;53.176;8.194;2024-02-15T11:39:58;11.80;99.90
18444;DHT22;9350;53.176;8.194;2024-02-15T11:42:28;11.80;99.90
18444;DHT22;9350;53.176;8.194;2024-02-15T11:45:05;11.80;99.90
18444;DHT22;9350;53.176;8.194;2024-02-15T11:47:37;11.80;99.90
18444;DHT22;9350;53.176;8.194;2024-02-15T11:50:05;11.80;99.90
18444;DHT22;9350;53.176;8.194;2024-02-15T11:52:38;11.90;99.90
18444;DHT22;9350;53.176;8.194;2024-02-15T11:55:05;11.80;99.90
18444;DHT22;9350;53.176;8.194;2024-02-15T11:57:36;11.90;99.90
18444;DHT22;9350;53.176;8.194;2024-02-15T12:00:23;11.90;99.90
18444;DHT22;9350;53.176;8.194;2024-02-15T12:03:08;11.90;99.90
18444;DHT22;9350;53.176;8.194;2024-02-15T12:05:53;11.90;99.90
18444;DHT22;9350;53.176;8.194;2024-02-15T12:08:34;11.90;99.90
18444;DHT22;9350;53.176;8.194;2024-02-15T12:11:19;11.90;99.90
18444;DHT22;9350;53.176;8.194;2024-02-15T12:14:03;11.80;99.90
18444;DHT22;9350;53.176;8.194;2024-02-15T12:16:59;11.80;99.90
18444;DHT22;9350;53.176;8.194;2024-02-15T12:19:43;11.90;99.90
18444;DHT22;9350;53.176;8.194;2024-02-15T12:22:10;11.80;99.90
18444;DHT22;9350;53.176;8.194;2024-02-15T12:24:37;11.90;99.90
18444;DHT22;9350;53.176;8.194;2024-02-15T12:27:04;11.90;99.90
18444;DHT22;9350;53.176;8.194;2024-02-15T12:29:31;11.90;99.90
18444;DHT22;9350;53.176;8.194;2024-02-15T12:32:02;11.80;99.90
18444;DHT22;9350;53.176;8.194;2024-02-15T12:34:30;11.90;99.90
18444;DHT22;9350;53.176;8.194;2024-02-15T12:37:06;11.90;99.90
18444;DHT22;9350;53.176;8.194;2024-02-15T12:39:35;11.90;99.90
18444;DHT22;9350;53.176;8.194;2024-02-15T12:42:02;11.90;99.90
18444;DHT22;9350;53.176;8.194;2024-02-15T12:44:29;11.80;99.90
18444;DHT22;9350;53.176;8.194;2024-02-15T12:46:59;11.80;99.90
18444;DHT22;9350;53.176;8.194;2024-02-15T12:49:30;11.90;99.90
18444;DHT22;9350;53.176;8.194;2024-02-15T12:52:38;11.90;99.90
18444;DHT22;9350;53.176;8.194;2024-02-15T12:55:14;11.90;99.90
18444;DHT22;9350;53.176;8.194;2024-02-15T12:57:42;11.90;99.90
18444;DHT22;9350;53.176;8.194;2024-02-15T13:00:14;11.90;99.90
18444;DHT22;9350;53.176;8.194;2024-02-15T13:02:45;11.90;99.90
18444;DHT22;9350;53.176;8.194;2024-02-15T13:05:14;11.90;99.90
18444;DHT22;9350;53.176;8.194;2024-02-15T13:07:43;11.90;99.90
18444;DHT22;9350;53.176;8.194;2024-02-15T13:10:13;11.90;99.90
18444;DHT22;9350;53.176;8.194;2024-02-15T13:12:41;12.00;99.90
18444;DHT22;9350;53.176;8.194;2024-02-15T13:15:10;12.00;99.90
18444;DHT22;9350;53.176;8.194;2024-02-15T13:17:40;11.90;99.90
18444;DHT22;9350;53.176;8.194;2024-02-15T13:20:08;11.90;99.90
18444;DHT22;9350;53.176;8.194;2024-02-15T13:22:40;11.90;99.90
18444;DHT22;9350;53.176;8.194;2024-02-15T13:25:09;11.90;99.90
18444;DHT22;9350;53.176;8.194;2024-02-15T13:27:36;11.90;99.90
18444;DHT22;9350;53.176;8.194;2024-02-15T13:30:05;11.90;99.90
18444;DHT22;9350;53.176;8.194;2024-02-15T13:32:34;12.00;99.90
18444;DHT22;9350;53.176;8.194;2024-02-15T13:35:02;12.00;99.90
18444;DHT22;9350;53.176;8.194;2024-02-15T13:37:43;12.00;99.90
18444;DHT22;9350;53.176;8.194;2024-02-15T13:40:10;12.00;99.90
18444;DHT22;9350;53.176;8.194;2024-02-15T13:42:41;12.00;99.90
18444;DHT22;9350;53.176;8.194;2024-02-15T13:45:12;12.10;99.90
18444;DHT22;9350;53.176;8.194;2024-02-15T13:47:40;12.00;99.90
18444;DHT22;9350;53.176;8.194;2024-02-15T13:50:07;12.00;99.90
18444;DHT22;9350;53.176;8.194;2024-02-15T13:52:35;12.00;99.90
18444;DHT22;9350;53.176;8.194;2024-02-15T13:55:04;12.00;99.90
18444;DHT22;9350;53.176;8.194;2024-02-15T13:57:31;12.00;99.90
18444;DHT22;9350;53.176;8.194;2024-02-15T13:59:58;12.00;99.90
18444;DHT22;9350;53.176;8.194;2024-02-15T14:02:25;11.90;99.90
18444;DHT22;9350;53.176;8.194;2024-02-15T14:04:51;12.00;99.90
18444;DHT22;9350;53.176;8.194;2024-02-15T14:07:18;12.00;99.90
18444;DHT22;9350;53.176;8.194;2024-02-15T14:09:45;12.00;99.90
18444;DHT22;9350;53.176;8.194;2024-02-15T14:12:13;12.10;99.90
18444;DHT22;9350;53.176;8.194;2024-02-15T14:14:41;12.10;99.90
18444;DHT22;9350;53.176;8.194;2024-02-15T14:17:08;12.10;99.90
18444;DHT22;9350;53.176;8.194;2024-02-15T14:19:35;12.10;99.90
18444;DHT22;9350;53.176;8.194;2024-02-15T14:22:02;12.10;99.90
18444;DHT22;9350;53.176;8.194;2024-02-15T14:24:34;12.00;99.90
18444;DHT22;9350;53.176;8.194;2024-02-15T14:27:02;12.10;99.90
18444;DHT22;9350;53.176;8.194;2024-02-15T14:29:30;12.10;99.90
18444;DHT22;9350;53.176;8.194;2024-02-15T14:32:00;12.10;99.90
18444;DHT22;9350;53.176;8.194;2024-02-15T14:34:44;12.00;99.90
18444;DHT22;9350;53.176;8.194;2024-02-15T14:37:11;12.00;99.90
18444;DHT22;9350;53.176;8.194;2024-02-15T14:39:38;12.00;99.90
18444;DHT22;9350;53.176;8.194;2024-02-15T14:42:05;12.10;99.90
18444;DHT22;9350;53.176;8.194;2024-02-15T14:44:34;12.10;99.90
18444;DHT22;9350;53.176;8.194;2024-02-15T14:47:02;12.10;99.90
18444;DHT22;9350;53.176;8.194;2024-02-15T14:49:29;12.00;99.90
18444;DHT22;9350;53.176;8.194;2024-02-15T14:51:56;12.00;99.90
18444;DHT22;9350;53.176;8.194;2024-02-15T14:54:23;12.00;99.90
18444;DHT22;9350;53.176;8.194;2024-02-15T14:56:50;12.10;99.90
18444;DHT22;9350;53.176;8.194;2024-02-15T14:59:16;12.00;99.90
18444;DHT22;9350;53.176;8.194;2024-02-15T15:01:45;12.00;99.90
18444;DHT22;9350;53.176;8.194;2024-02-15T15:04:11;12.00;99.90
18444;DHT22;9350;53.176;8.194;2024-02-15T15:06:39;12.00;99.90
18444;DHT22;9350;53.176;8.194;2024-02-15T15:09:23;12.00;99.90
18444;DHT22;9350;53.176;8.194;2024-02-15T15:12:07;12.00;99.90
18444;DHT22;9350;53.176;8.194;2024-02-15T15:14:51;12.00;99.90
18444;DHT22;9350;53.176;8.194;2024-02-15T15:17:20;12.00;99.90
18444;DHT22;9350;53.176;8.194;2024-02-15T15:19:47;12.00;99.90
18444;DHT22;9350;53.176;8.194;2024-02-15T15:22:14;12.00;99.90
18444;DHT22;9350;53.176;8.194;2024-02-15T15:24:40;12.00;99.90
18444;DHT22;9350;53.176;8.194;2024-02-15T15:27:07;12.00;99.90
18444;DHT22;9350;53.176;8.194;2024-02-15T15:29:34;12.00;99.90
18444;DHT22;9350;53.176;8.194;2024-02-15T15:32:01;12.00;99.90
18444;DHT22;9350;53.176;8.194;2024-02-15T15:34:29;12.00;99.90
18444;DHT22;9350;53.176;8.194;2024-02-15T15:36:56;12.00;99.90
18444;DHT22;9350;53.176;8.194;2024-02-15T15:39:22;12.00;99.90
18444;DHT22;9350;53.176;8.194;2024-02-15T15:41:52;12.00;99.90
18444;DHT22;9350;53.176;8.194;2024-02-15T15:44:20;12.10;99.90
18444;DHT22;9350;53.176;8.194;2024-02-15T15:46:50;12.00;99.90
18444;DHT22;9350;53.176;8.194;2024-02-15T15:49:17;12.00;99.90
18444;DHT22;9350;53.176;8.194;2024-02-15T15:51:45;12.00;99.90
18444;DHT22;9350;53.176;8.194;2024-02-15T15:54:12;12.00;99.90
18444;DHT22;9350;53.176;8.194;2024-02-15T15:56:39;12.00;99.90
18444;DHT22;9350;53.176;8.194;2024-02-15T15:59:06;12.00;99.90
18444;DHT22;9350;53.176;8.194;2024-02-15T16:01:33;12.00;99.90
18444;DHT22;9350;53.176;8.194;2024-02-15T16:04:01;12.00;99.90
18444;DHT22;9350;53.176;8.194;2024-02-15T16:06:27;12.00;99.90
18444;DHT22;9350;53.176;8.194;2024-02-15T16:08:56;12.00;99.90
18444;DHT22;9350;53.176;8.194;2024-02-15T16:11:23;12.00;99.90
18444;DHT22;9350;53.176;8.194;2024-02-15T16:13:49;12.00;99.90
18444;DHT22;9350;53.176;8.194;2024-02-15T16:16:16;12.00;99.90
18444;DHT22;9350;53.176;8.194;2024-02-15T16:18:43;12.00;99.90
18444;DHT22;9350;53.176;8.194;2024-02-15T16:21:10;11.90;99.90
18444;DHT22;9350;53.176;8.194;2024-02-15T16:23:36;11.90;99.90
18444;DHT22;9350;53.176;8.194;2024-02-15T16:26:05;12.00;99.90
18444;DHT22;9350;53.176;8.194;2024-02-15T16:28:32;11.90;99.90
18444;DHT22;9350;53.176;8.194;2024-02-15T16:30:59;11.90;99.90
18444;DHT22;9350;53.176;8.194;2024-02-15T16:33:26;11.90;99.90
18444;DHT22;9350;53.176;8.194;2024-02-15T16:35:52;11.90;99.90
18444;DHT22;9350;53.176;8.194;2024-02-15T16:38:19;11.90;99.90
18444;DHT22;9350;53.176;8.194;2024-02-15T16:40:46;11.90;99.90
18444;DHT22;9350;53.176;8.194;2024-02-15T16:43:14;11.90;99.90
18444;DHT22;9350;53.176;8.194;2024-02-15T16:45:42;11.90;99.90
18444;DHT22;9350;53.176;8.194;2024-02-15T16:48:09;11.90;99.90
18444;DHT22;9350;53.176;8.194;2024-02-15T16:50:37;11.80;99.90
18444;DHT22;9350;53.176;8.194;2024-02-15T16:53:06;11.90;99.90
18444;DHT22;9350;53.176;8.194;2024-02-15T16:55:34;11.90;99.90
18444;DHT22;9350;53.176;8.194;2024-02-15T16:58:01;11.90;99.90
18444;DHT22;9350;53.176;8.194;2024-02-15T17:00:31;11.90;99.90
18444;DHT22;9350;53.176;8.194;2024-02-15T17:02:57;11.90;99.90